sensor_id;sensor_type;location;lat;lon;timestamp;temperature;humidity
64987;DHT22;51532;52.108;9.360;2022-07-23T00:02:26;15.70;99.90
64987;DHT22;51532;52.108;9.360;2022-07-23T00:05:11;15.70;99.90
64987;DHT22;51532;52.108;9.360;2022-07-23T00:07:57;15.60;99.90
64987;DHT22;51532;52.108;9.360;2022-07-23T00:10:42;15.60;99.90
64987;DHT22;51532;52.108;9.360;2022-07-23T00:13:28;15.50;99.90
64987;DHT22;51532;52.108;9.360;2022-07-23T00:16:13;15.40;99.90
64987;DHT22;51532;52.108;9.360;2022-07-23T00:18:59;15.50;99.90
64987;DHT22;51532;52.108;9.360;2022-07-23T00:21:47;15.50;99.90
64987;DHT22;51532;52.108;9.360;2022-07-23T00:24:32;15.40;99.90
64987;DHT22;51532;52.108;9.360;2022-07-23T00:30:05;15.50;99.90
64987;DHT22;51532;52.108;9.360;2022-07-23T00:32:55;15.50;99.90
64987;DHT22;51532;52.108;9.360;2022-07-23T00:35:42;15.50;99.90
64987;DHT22;51532;52.108;9.360;2022-07-23T00:38:28;15.50;99.90
64987;DHT22;51532;52.108;9.360;2022-07-23T00:41:13;15.50;99.90
64987;DHT22;51532;52.108;9.360;2022-07-23T00:44:26;15.40;99.90
64987;DHT22;51532;52.108;9.360;2022-07-23T00:47:11;15.30;99.90
64987;DHT22;51532;52.108;9.360;2022-07-23T00:49:56;15.30;99.90
64987;DHT22;51532;52.108;9.360;2022-07-23T00:52:42;15.30;99.90
64987;DHT22;51532;52.108;9.360;2022-07-23T00:55:27;15.30;99.90
64987;DHT22;51532;52.108;9.360;2022-07-23T00:58:13;15.30;99.90
64987;DHT22;51532;52.108;9.360;2022-07-23T01:00:59;15.30;99.90
64987;DHT22;51532;52.108;9.360;2022-07-23T01:03:45;15.40;99.90
64987;DHT22;51532;52.108;9.360;2022-07-23T01:06:35;15.40;99.90
64987;DHT22;51532;52.108;9.360;2022-07-23T01:09:21;15.50;99.90
64987;DHT22;51532;52.108;9.360;2022-07-23T01:12:07;15.50;99.90
64987;DHT22;51532;52.108;9.360;2022-07-23T01:14:57;15.50;99.90
64987;DHT22;51532;52.108;9.360;2022-07-23T01:17:43;15.40;99.90
64987;DHT22;51532;52.108;9.360;2022-07-23T01:20:30;15.30;99.90
64987;DHT22;51532;52.108;9.360;2022-07-23T01:23:15;15.20;99.90
64987;DHT22;51532;52.108;9.360;2022-07-23T01:26:07;15.00;99.90
64987;DHT22;51532;52.108;9.360;2022-07-23T01:28:56;15.10;99.90
64987;DHT22;51532;52.108;9.360;2022-07-23T01:31:43;15.00;99.90
64987;DHT22;51532;52.108;9.360;2022-07-23T01:34:29;15.00;99.90
64987;DHT22;51532;52.108;9.360;2022-07-23T01:37:15;15.00;99.90
64987;DHT22;51532;52.108;9.360;2022-07-23T01:40:02;15.10;99.90
64987;DHT22;51532;52.108;9.360;2022-07-23T01:45:35;15.40;99.90
64987;DHT22;51532;52.108;9.360;2022-07-23T01:59:55;15.20;99.90
64987;DHT22;51532;52.108;9.360;2022-07-23T02:02:41;15.20;99.90
64987;DHT22;51532;52.108;9.360;2022-07-23T02:05:28;15.00;99.90
64987;DHT22;51532;52.108;9.360;2022-07-23T02:27:46;15.20;99.90
64987;DHT22;51532;52.108;9.360;2022-07-23T02:30:31;15.20;99.90
64987;DHT22;51532;52.108;9.360;2022-07-23T02:33:18;15.20;99.90
64987;DHT22;51532;52.108;9.360;2022-07-23T02:36:04;15.10;99.90
64987;DHT22;51532;52.108;9.360;2022-07-23T02:38:50;14.90;99.90
64987;DHT22;51532;52.108;9.360;2022-07-23T02:41:35;14.90;99.90
64987;DHT22;51532;52.108;9.360;2022-07-23T02:44:21;14.90;99.90
64987;DHT22;51532;52.108;9.360;2022-07-23T02:47:10;14.90;99.90
64987;DHT22;51532;52.108;9.360;2022-07-23T02:49:56;14.90;99.90
64987;DHT22;51532;52.108;9.360;2022-07-23T02:52:42;14.80;99.90
64987;DHT22;51532;52.108;9.360;2022-07-23T02:55:27;14.90;99.90
64987;DHT22;51532;52.108;9.360;2022-07-23T02:58:13;14.90;99.90
64987;DHT22;51532;52.108;9.360;2022-07-23T03:00:58;15.10;99.90
64987;DHT22;51532;52.108;9.360;2022-07-23T03:03:45;15.10;99.90
64987;DHT22;51532;52.108;9.360;2022-07-23T03:06:30;15.10;99.90
64987;DHT22;51532;52.108;9.360;2022-07-23T03:09:16;15.20;99.90
64987;DHT22;51532;52.108;9.360;2022-07-23T03:12:01;15.10;99.90
64987;DHT22;51532;52.108;9.360;2022-07-23T03:14:47;15.20;99.90
64987;DHT22;51532;52.108;9.360;2022-07-23T03:17:32;15.20;99.90
64987;DHT22;51532;52.108;9.360;2022-07-23T03:20:19;15.20;99.90
64987;DHT22;51532;52.108;9.360;2022-07-23T03:23:04;15.30;99.90
64987;DHT22;51532;52.108;9.360;2022-07-23T03:25:49;15.30;99.90
64987;DHT22;51532;52.108;9.360;2022-07-23T03:28:39;15.30;99.90
64987;DHT22;51532;52.108;9.360;2022-07-23T03:31:25;15.20;99.90
64987;DHT22;51532;52.108;9.360;2022-07-23T03:34:10;15.20;99.90
64987;DHT22;51532;52.108;9.360;2022-07-23T03:36:56;15.20;99.90
64987;DHT22;51532;52.108;9.360;2022-07-23T03:39:42;15.20;99.90
64987;DHT22;51532;52.108;9.360;2022-07-23T03:42:28;15.20;99.90
64987;DHT22;51532;52.108;9.360;2022-07-23T03:45:13;15.30;99.90
64987;DHT22;51532;52.108;9.360;2022-07-23T03:47:59;15.30;99.90
64987;DHT22;51532;52.108;9.360;2022-07-23T03:50:44;15.40;99.90
64987;DHT22;51532;52.108;9.360;2022-07-23T03:53:29;15.40;99.90
64987;DHT22;51532;52.108;9.360;2022-07-23T03:56:15;15.50;99.90
64987;DHT22;51532;52.108;9.360;2022-07-23T03:59:02;15.50;99.90
64987;DHT22;51532;52.108;9.360;2022-07-23T04:01:48;15.50;99.90
64987;DHT22;51532;52.108;9.360;2022-07-23T04:04:34;15.30;99.90
64987;DHT22;51532;52.108;9.360;2022-07-23T04:07:19;15.20;99.90
64987;DHT22;51532;52.108;9.360;2022-07-23T04:10:05;15.20;99.90
64987;DHT22;51532;52.108;9.360;2022-07-23T04:12:51;16.50;99.90
64987;DHT22;51532;52.108;9.360;2022-07-23T04:15:37;15.00;99.90
64987;DHT22;51532;52.108;9.360;2022-07-23T04:18:23;15.00;99.90
64987;DHT22;51532;52.108;9.360;2022-07-23T04:21:23;15.00;99.90
64987;DHT22;51532;52.108;9.360;2022-07-23T04:24:08;15.00;99.90
64987;DHT22;51532;52.108;9.360;2022-07-23T04:26:54;15.00;99.90
64987;DHT22;51532;52.108;9.360;2022-07-23T04:29:40;14.90;99.90
64987;DHT22;51532;52.108;9.360;2022-07-23T04:32:25;14.90;99.90
64987;DHT22;51532;52.108;9.360;2022-07-23T04:35:10;14.90;99.90
64987;DHT22;51532;52.108;9.360;2022-07-23T04:37:56;14.80;99.90
64987;DHT22;51532;52.108;9.360;2022-07-23T04:40:42;16.70;99.90
64987;DHT22;51532;52.108;9.360;2022-07-23T04:43:29;14.80;99.90
64987;DHT22;51532;52.108;9.360;2022-07-23T04:46:14;14.70;99.90
64987;DHT22;51532;52.108;9.360;2022-07-23T04:49:05;14.70;99.90
64987;DHT22;51532;52.108;9.360;2022-07-23T04:51:52;14.70;99.90
64987;DHT22;51532;52.108;9.360;2022-07-23T04:54:37;14.80;99.90
64987;DHT22;51532;52.108;9.360;2022-07-23T04:57:23;14.80;99.90
64987;DHT22;51532;52.108;9.360;2022-07-23T05:00:09;14.80;99.90
64987;DHT22;51532;52.108;9.360;2022-07-23T05:02:55;14.90;99.90
64987;DHT22;51532;52.108;9.360;2022-07-23T05:05:40;14.90;99.90
64987;DHT22;51532;52.108;9.360;2022-07-23T05:08:31;14.80;99.90
64987;DHT22;51532;52.108;9.360;2022-07-23T05:11:17;14.80;99.90
64987;DHT22;51532;52.108;9.360;2022-07-23T05:14:09;14.80;99.90
64987;DHT22;51532;52.108;9.360;2022-07-23T05:16:57;14.80;99.90
64987;DHT22;51532;52.108;9.360;2022-07-23T05:19:44;14.80;99.90
64987;DHT22;51532;52.108;9.360;2022-07-23T05:22:30;14.90;99.90
64987;DHT22;51532;52.108;9.360;2022-07-23T05:25:15;15.10;99.90
64987;DHT22;51532;52.108;9.360;2022-07-23T05:28:01;15.30;99.90
64987;DHT22;51532;52.108;9.360;2022-07-23T05:30:46;15.40;99.90
64987;DHT22;51532;52.108;9.360;2022-07-23T05:33:34;15.50;99.90
64987;DHT22;51532;52.108;9.360;2022-07-23T05:36:19;15.60;99.90
64987;DHT22;51532;52.108;9.360;2022-07-23T05:39:13;15.60;99.90
64987;DHT22;51532;52.108;9.360;2022-07-23T05:42:00;15.60;99.90
64987;DHT22;51532;52.108;9.360;2022-07-23T05:44:46;15.70;99.90
64987;DHT22;51532;52.108;9.360;2022-07-23T05:47:49;15.70;99.90
64987;DHT22;51532;52.108;9.360;2022-07-23T05:50:44;15.80;99.90
64987;DHT22;51532;52.108;9.360;2022-07-23T05:53:39;15.80;99.90
64987;DHT22;51532;52.108;9.360;2022-07-23T05:56:32;16.00;99.90
64987;DHT22;51532;52.108;9.360;2022-07-23T05:59:18;16.10;99.90
64987;DHT22;51532;52.108;9.360;2022-07-23T06:02:04;16.10;99.90
64987;DHT22;51532;52.108;9.360;2022-07-23T06:04:49;16.20;99.90
64987;DHT22;51532;52.108;9.360;2022-07-23T06:07:48;16.20;99.90
64987;DHT22;51532;52.108;9.360;2022-07-23T06:10:34;16.40;99.90
64987;DHT22;51532;52.108;9.360;2022-07-23T06:13:19;16.40;99.90
64987;DHT22;51532;52.108;9.360;2022-07-23T06:16:05;16.60;99.90
64987;DHT22;51532;52.108;9.360;2022-07-23T06:18:51;16.90;99.90
64987;DHT22;51532;52.108;9.360;2022-07-23T06:21:37;16.80;99.90
64987;DHT22;51532;52.108;9.360;2022-07-23T06:24:33;16.70;99.90
64987;DHT22;51532;52.108;9.360;2022-07-23T06:27:19;16.60;99.90
64987;DHT22;51532;52.108;9.360;2022-07-23T06:30:11;16.40;99.90
64987;DHT22;51532;52.108;9.360;2022-07-23T06:32:57;16.30;99.90
64987;DHT22;51532;52.108;9.360;2022-07-23T06:35:42;16.20;99.90
64987;DHT22;51532;52.108;9.360;2022-07-23T06:38:28;16.20;99.90
64987;DHT22;51532;52.108;9.360;2022-07-23T06:41:14;16.10;99.90
64987;DHT22;51532;52.108;9.360;2022-07-23T06:44:00;16.10;99.90
64987;DHT22;51532;52.108;9.360;2022-07-23T06:46:48;16.20;99.90
64987;DHT22;51532;52.108;9.360;2022-07-23T06:49:33;16.10;99.90
64987;DHT22;51532;52.108;9.360;2022-07-23T06:52:19;16.30;99.90
64987;DHT22;51532;52.108;9.360;2022-07-23T06:55:05;16.40;99.90
64987;DHT22;51532;52.108;9.360;2022-07-23T06:57:50;16.30;99.90
64987;DHT22;51532;52.108;9.360;2022-07-23T07:00:36;16.40;99.90
64987;DHT22;51532;52.108;9.360;2022-07-23T07:03:22;16.40;99.90
64987;DHT22;51532;52.108;9.360;2022-07-23T07:06:07;16.50;99.90
64987;DHT22;51532;52.108;9.360;2022-07-23T07:08:53;16.60;99.90
64987;DHT22;51532;52.108;9.360;2022-07-23T07:11:38;16.80;99.90
64987;DHT22;51532;52.108;9.360;2022-07-23T07:14:24;16.90;99.90
64987;DHT22;51532;52.108;9.360;2022-07-23T07:17:09;17.00;99.90
64987;DHT22;51532;52.108;9.360;2022-07-23T07:19:56;17.10;99.90
64987;DHT22;51532;52.108;9.360;2022-07-23T07:22:41;15.40;99.90
64987;DHT22;51532;52.108;9.360;2022-07-23T07:25:27;17.50;99.90
64987;DHT22;51532;52.108;9.360;2022-07-23T07:28:13;17.50;99.90
64987;DHT22;51532;52.108;9.360;2022-07-23T07:30:59;17.60;99.90
64987;DHT22;51532;52.108;9.360;2022-07-23T07:33:44;17.60;99.90
64987;DHT22;51532;52.108;9.360;2022-07-23T07:36:30;17.80;99.90
64987;DHT22;51532;52.108;9.360;2022-07-23T07:39:16;17.90;99.90
64987;DHT22;51532;52.108;9.360;2022-07-23T07:42:01;18.00;99.90
64987;DHT22;51532;52.108;9.360;2022-07-23T07:44:46;18.10;99.90
64987;DHT22;51532;52.108;9.360;2022-07-23T07:47:32;18.30;99.90
64987;DHT22;51532;52.108;9.360;2022-07-23T07:50:17;18.30;99.90
64987;DHT22;51532;52.108;9.360;2022-07-23T07:53:03;18.30;99.90
64987;DHT22;51532;52.108;9.360;2022-07-23T07:55:49;18.30;99.90
64987;DHT22;51532;52.108;9.360;2022-07-23T07:58:36;18.30;99.90
64987;DHT22;51532;52.108;9.360;2022-07-23T08:01:21;18.20;99.90
64987;DHT22;51532;52.108;9.360;2022-07-23T08:04:06;18.20;99.90
64987;DHT22;51532;52.108;9.360;2022-07-23T08:06:52;18.50;99.90
64987;DHT22;51532;52.108;9.360;2022-07-23T08:09:38;18.80;99.90
64987;DHT22;51532;52.108;9.360;2022-07-23T08:12:23;19.00;99.90
64987;DHT22;51532;52.108;9.360;2022-07-23T08:15:09;19.20;99.90
64987;DHT22;51532;52.108;9.360;2022-07-23T08:17:59;19.20;99.90
64987;DHT22;51532;52.108;9.360;2022-07-23T08:20:44;19.20;99.90
64987;DHT22;51532;52.108;9.360;2022-07-23T08:23:30;19.50;99.90
64987;DHT22;51532;52.108;9.360;2022-07-23T08:26:15;19.70;99.90
64987;DHT22;51532;52.108;9.360;2022-07-23T08:29:01;20.00;99.90
64987;DHT22;51532;52.108;9.360;2022-07-23T08:31:46;19.80;99.90
64987;DHT22;51532;52.108;9.360;2022-07-23T08:34:32;19.90;99.90
64987;DHT22;51532;52.108;9.360;2022-07-23T08:37:17;19.80;99.90
64987;DHT22;51532;52.108;9.360;2022-07-23T08:40:03;19.70;99.90
64987;DHT22;51532;52.108;9.360;2022-07-23T08:42:50;19.50;99.90
64987;DHT22;51532;52.108;9.360;2022-07-23T08:45:38;19.50;99.90
64987;DHT22;51532;52.108;9.360;2022-07-23T08:48:26;19.70;99.90
64987;DHT22;51532;52.108;9.360;2022-07-23T08:51:13;20.00;99.90
64987;DHT22;51532;52.108;9.360;2022-07-23T08:53:58;20.20;99.90
64987;DHT22;51532;52.108;9.360;2022-07-23T08:56:44;19.90;99.90
64987;DHT22;51532;52.108;9.360;2022-07-23T08:59:30;19.40;99.90
64987;DHT22;51532;52.108;9.360;2022-07-23T09:02:18;19.50;99.90
64987;DHT22;51532;52.108;9.360;2022-07-23T09:05:04;20.00;99.90
64987;DHT22;51532;52.108;9.360;2022-07-23T09:08:13;20.30;99.90
64987;DHT22;51532;52.108;9.360;2022-07-23T09:11:01;21.00;99.90
64987;DHT22;51532;52.108;9.360;2022-07-23T09:13:53;21.30;99.90
64987;DHT22;51532;52.108;9.360;2022-07-23T09:16:39;21.20;99.90
64987;DHT22;51532;52.108;9.360;2022-07-23T09:19:27;20.90;99.90
64987;DHT22;51532;52.108;9.360;2022-07-23T09:22:26;20.30;99.90
64987;DHT22;51532;52.108;9.360;2022-07-23T09:25:15;20.10;99.90
64987;DHT22;51532;52.108;9.360;2022-07-23T09:28:01;20.00;99.90
64987;DHT22;51532;52.108;9.360;2022-07-23T09:30:51;20.10;99.90
64987;DHT22;51532;52.108;9.360;2022-07-23T09:33:37;20.20;99.90
64987;DHT22;51532;52.108;9.360;2022-07-23T09:36:28;20.20;99.90
64987;DHT22;51532;52.108;9.360;2022-07-23T09:39:21;20.30;99.90
64987;DHT22;51532;52.108;9.360;2022-07-23T09:44:59;20.60;99.90
64987;DHT22;51532;52.108;9.360;2022-07-23T09:47:45;20.50;99.90
64987;DHT22;51532;52.108;9.360;2022-07-23T09:50:31;20.80;99.90
64987;DHT22;51532;52.108;9.360;2022-07-23T09:53:24;20.90;99.90
64987;DHT22;51532;52.108;9.360;2022-07-23T09:56:13;20.80;99.90
64987;DHT22;51532;52.108;9.360;2022-07-23T09:59:00;21.10;99.90
64987;DHT22;51532;52.108;9.360;2022-07-23T10:01:53;20.50;99.90
64987;DHT22;51532;52.108;9.360;2022-07-23T10:04:39;20.30;99.90
64987;DHT22;51532;52.108;9.360;2022-07-23T10:07:26;20.10;99.90
64987;DHT22;51532;52.108;9.360;2022-07-23T10:10:41;20.30;99.90
64987;DHT22;51532;52.108;9.360;2022-07-23T10:13:45;20.90;99.90
64987;DHT22;51532;52.108;9.360;2022-07-23T10:16:40;21.40;99.90
64987;DHT22;51532;52.108;9.360;2022-07-23T10:19:26;21.40;99.90
64987;DHT22;51532;52.108;9.360;2022-07-23T10:22:14;21.10;99.90
64987;DHT22;51532;52.108;9.360;2022-07-23T10:25:05;21.20;99.90
64987;DHT22;51532;52.108;9.360;2022-07-23T10:31:54;21.40;99.90
64987;DHT22;51532;52.108;9.360;2022-07-23T10:38:24;21.60;99.90
64987;DHT22;51532;52.108;9.360;2022-07-23T10:41:07;22.10;99.90
64987;DHT22;51532;52.108;9.360;2022-07-23T10:46:57;22.50;99.90
64987;DHT22;51532;52.108;9.360;2022-07-23T10:49:53;22.20;99.90
64987;DHT22;51532;52.108;9.360;2022-07-23T10:52:39;22.40;99.90
64987;DHT22;51532;52.108;9.360;2022-07-23T10:58:10;22.20;99.90
64987;DHT22;51532;52.108;9.360;2022-07-23T11:00:55;22.10;99.90
64987;DHT22;51532;52.108;9.360;2022-07-23T11:03:55;21.90;99.90
64987;DHT22;51532;52.108;9.360;2022-07-23T11:09:47;21.80;99.90
64987;DHT22;51532;52.108;9.360;2022-07-23T11:12:33;22.50;99.90
64987;DHT22;51532;52.108;9.360;2022-07-23T11:15:20;22.10;99.90
64987;DHT22;51532;52.108;9.360;2022-07-23T11:18:05;22.30;99.90
64987;DHT22;51532;52.108;9.360;2022-07-23T11:20:51;22.60;99.90
64987;DHT22;51532;52.108;9.360;2022-07-23T11:26:48;22.20;99.90
64987;DHT22;51532;52.108;9.360;2022-07-23T11:29:38;22.10;99.90
64987;DHT22;51532;52.108;9.360;2022-07-23T11:32:33;22.10;99.90
64987;DHT22;51532;52.108;9.360;2022-07-23T11:35:26;22.10;99.90
64987;DHT22;51532;52.108;9.360;2022-07-23T11:38:21;22.50;99.90
64987;DHT22;51532;52.108;9.360;2022-07-23T11:41:07;22.80;99.90
64987;DHT22;51532;52.108;9.360;2022-07-23T11:43:52;23.20;99.90
64987;DHT22;51532;52.108;9.360;2022-07-23T11:46:38;23.10;99.90
64987;DHT22;51532;52.108;9.360;2022-07-23T11:49:24;22.90;99.90
64987;DHT22;51532;52.108;9.360;2022-07-23T11:52:14;22.40;99.90
64987;DHT22;51532;52.108;9.360;2022-07-23T11:55:05;22.60;99.90
64987;DHT22;51532;52.108;9.360;2022-07-23T11:57:52;22.10;99.90
64987;DHT22;51532;52.108;9.360;2022-07-23T12:00:40;22.80;99.90
64987;DHT22;51532;52.108;9.360;2022-07-23T12:03:26;22.80;99.90
64987;DHT22;51532;52.108;9.360;2022-07-23T12:06:12;22.70;99.90
64987;DHT22;51532;52.108;9.360;2022-07-23T12:08:57;22.70;99.90
64987;DHT22;51532;52.108;9.360;2022-07-23T12:11:59;22.60;99.90
64987;DHT22;51532;52.108;9.360;2022-07-23T12:14:56;23.00;99.90
64987;DHT22;51532;52.108;9.360;2022-07-23T12:17:44;23.60;99.90
64987;DHT22;51532;52.108;9.360;2022-07-23T12:20:50;23.10;99.90
64987;DHT22;51532;52.108;9.360;2022-07-23T12:23:36;23.10;99.90
64987;DHT22;51532;52.108;9.360;2022-07-23T12:26:23;23.30;99.90
64987;DHT22;51532;52.108;9.360;2022-07-23T12:29:08;23.40;99.90
64987;DHT22;51532;52.108;9.360;2022-07-23T12:31:54;23.60;99.90
64987;DHT22;51532;52.108;9.360;2022-07-23T12:34:39;23.40;99.90
64987;DHT22;51532;52.108;9.360;2022-07-23T12:37:33;23.60;99.90
64987;DHT22;51532;52.108;9.360;2022-07-23T12:43:31;23.50;99.90
64987;DHT22;51532;52.108;9.360;2022-07-23T12:46:19;23.50;99.90
64987;DHT22;51532;52.108;9.360;2022-07-23T12:49:05;23.70;99.90
64987;DHT22;51532;52.108;9.360;2022-07-23T12:51:52;23.70;99.90
64987;DHT22;51532;52.108;9.360;2022-07-23T12:54:37;23.50;99.90
64987;DHT22;51532;52.108;9.360;2022-07-23T12:57:46;23.50;99.90
64987;DHT22;51532;52.108;9.360;2022-07-23T13:00:48;23.50;99.90
64987;DHT22;51532;52.108;9.360;2022-07-23T13:03:38;23.50;99.90
64987;DHT22;51532;52.108;9.360;2022-07-23T13:06:24;23.70;99.90
64987;DHT22;51532;52.108;9.360;2022-07-23T13:09:14;23.80;99.90
64987;DHT22;51532;52.108;9.360;2022-07-23T13:12:00;23.80;99.90
64987;DHT22;51532;52.108;9.360;2022-07-23T13:14:46;24.00;99.90
64987;DHT22;51532;52.108;9.360;2022-07-23T13:17:31;24.10;99.90
64987;DHT22;51532;52.108;9.360;2022-07-23T13:20:17;23.90;99.90
64987;DHT22;51532;52.108;9.360;2022-07-23T13:23:07;24.10;99.90
64987;DHT22;51532;52.108;9.360;2022-07-23T13:25:53;24.00;99.90
64987;DHT22;51532;52.108;9.360;2022-07-23T13:28:39;23.60;99.90
64987;DHT22;51532;52.108;9.360;2022-07-23T13:31:25;23.80;99.90
64987;DHT22;51532;52.108;9.360;2022-07-23T13:34:10;23.90;99.90
64987;DHT22;51532;52.108;9.360;2022-07-23T13:36:57;23.80;99.90
64987;DHT22;51532;52.108;9.360;2022-07-23T13:39:42;23.60;99.90
64987;DHT22;51532;52.108;9.360;2022-07-23T13:42:28;23.60;99.90
64987;DHT22;51532;52.108;9.360;2022-07-23T13:45:13;23.60;99.90
64987;DHT22;51532;52.108;9.360;2022-07-23T13:48:01;23.50;99.90
64987;DHT22;51532;52.108;9.360;2022-07-23T13:50:48;23.80;99.90
64987;DHT22;51532;52.108;9.360;2022-07-23T13:53:33;24.00;99.90
64987;DHT22;51532;52.108;9.360;2022-07-23T13:56:19;24.00;99.90
64987;DHT22;51532;52.108;9.360;2022-07-23T13:59:05;24.60;99.90
64987;DHT22;51532;52.108;9.360;2022-07-23T14:01:51;24.50;99.90
64987;DHT22;51532;52.108;9.360;2022-07-23T14:04:57;24.40;99.90
64987;DHT22;51532;52.108;9.360;2022-07-23T14:07:42;24.10;99.90
64987;DHT22;51532;52.108;9.360;2022-07-23T14:10:30;24.40;99.90
64987;DHT22;51532;52.108;9.360;2022-07-23T14:13:16;25.20;99.90
64987;DHT22;51532;52.108;9.360;2022-07-23T14:16:06;25.80;99.90
64987;DHT22;51532;52.108;9.360;2022-07-23T14:18:51;27.10;99.90
64987;DHT22;51532;52.108;9.360;2022-07-23T14:21:37;28.10;99.90
64987;DHT22;51532;52.108;9.360;2022-07-23T14:24:23;27.40;99.90
64987;DHT22;51532;52.108;9.360;2022-07-23T14:27:09;28.90;99.90
64987;DHT22;51532;52.108;9.360;2022-07-23T14:29:56;30.00;99.60
64987;DHT22;51532;52.108;9.360;2022-07-23T14:32:41;31.40;96.90
64987;DHT22;51532;52.108;9.360;2022-07-23T14:35:27;31.00;96.40
64987;DHT22;51532;52.108;9.360;2022-07-23T14:38:13;31.50;95.00
64987;DHT22;51532;52.108;9.360;2022-07-23T14:40:58;31.60;93.80
64987;DHT22;51532;52.108;9.360;2022-07-23T14:43:44;31.80;92.80
64987;DHT22;51532;52.108;9.360;2022-07-23T14:46:32;31.50;92.30
64987;DHT22;51532;52.108;9.360;2022-07-23T14:49:17;31.00;92.40
64987;DHT22;51532;52.108;9.360;2022-07-23T14:52:04;30.60;92.50
64987;DHT22;51532;52.108;9.360;2022-07-23T14:54:50;30.60;91.80
64987;DHT22;51532;52.108;9.360;2022-07-23T14:57:36;30.20;92.40
64987;DHT22;51532;52.108;9.360;2022-07-23T15:00:21;29.70;92.60
64987;DHT22;51532;52.108;9.360;2022-07-23T15:03:08;28.90;93.40
64987;DHT22;51532;52.108;9.360;2022-07-23T15:05:53;28.80;93.80
64987;DHT22;51532;52.108;9.360;2022-07-23T15:08:39;28.60;93.80
64987;DHT22;51532;52.108;9.360;2022-07-23T15:11:25;29.00;93.60
64987;DHT22;51532;52.108;9.360;2022-07-23T15:14:11;28.90;93.10
64987;DHT22;51532;52.108;9.360;2022-07-23T15:17:09;29.10;93.30
64987;DHT22;51532;52.108;9.360;2022-07-23T15:19:54;27.70;94.30
64987;DHT22;51532;52.108;9.360;2022-07-23T15:22:39;29.70;93.30
64987;DHT22;51532;52.108;9.360;2022-07-23T15:25:26;30.40;92.10
64987;DHT22;51532;52.108;9.360;2022-07-23T15:28:11;29.20;91.60
64987;DHT22;51532;52.108;9.360;2022-07-23T15:30:56;29.30;92.60
64987;DHT22;51532;52.108;9.360;2022-07-23T15:33:42;30.70;91.20
64987;DHT22;51532;52.108;9.360;2022-07-23T15:36:27;31.80;90.00
64987;DHT22;51532;52.108;9.360;2022-07-23T15:39:13;32.40;89.10
64987;DHT22;51532;52.108;9.360;2022-07-23T15:42:00;31.80;87.70
64987;DHT22;51532;52.108;9.360;2022-07-23T15:44:45;30.60;89.80
64987;DHT22;51532;52.108;9.360;2022-07-23T15:47:32;32.00;88.80
64987;DHT22;51532;52.108;9.360;2022-07-23T15:50:18;33.00;86.60
64987;DHT22;51532;52.108;9.360;2022-07-23T15:53:04;33.70;82.60
64987;DHT22;51532;52.108;9.360;2022-07-23T15:55:49;33.80;81.80
64987;DHT22;51532;52.108;9.360;2022-07-23T15:58:35;33.70;80.30
64987;DHT22;51532;52.108;9.360;2022-07-23T16:01:24;34.40;80.10
64987;DHT22;51532;52.108;9.360;2022-07-23T16:04:10;33.30;78.80
64987;DHT22;51532;52.108;9.360;2022-07-23T16:06:56;34.30;78.00
64987;DHT22;51532;52.108;9.360;2022-07-23T16:09:48;33.80;78.30
64987;DHT22;51532;52.108;9.360;2022-07-23T16:12:34;33.50;78.80
64987;DHT22;51532;52.108;9.360;2022-07-23T16:15:20;34.40;79.10
64987;DHT22;51532;52.108;9.360;2022-07-23T16:18:07;32.70;77.20
64987;DHT22;51532;52.108;9.360;2022-07-23T16:20:53;32.80;80.50
64987;DHT22;51532;52.108;9.360;2022-07-23T16:23:39;33.00;78.60
64987;DHT22;51532;52.108;9.360;2022-07-23T16:26:25;32.80;78.10
64987;DHT22;51532;52.108;9.360;2022-07-23T16:29:11;33.30;80.70
64987;DHT22;51532;52.108;9.360;2022-07-23T16:32:06;33.50;79.60
64987;DHT22;51532;52.108;9.360;2022-07-23T16:34:51;32.50;77.90
64987;DHT22;51532;52.108;9.360;2022-07-23T16:37:37;35.20;78.70
64987;DHT22;51532;52.108;9.360;2022-07-23T16:40:22;35.50;77.50
64987;DHT22;51532;52.108;9.360;2022-07-23T16:43:08;34.90;77.00
64987;DHT22;51532;52.108;9.360;2022-07-23T16:45:54;32.70;75.80
64987;DHT22;51532;52.108;9.360;2022-07-23T16:48:39;31.60;77.00
64987;DHT22;51532;52.108;9.360;2022-07-23T16:51:25;29.00;81.00
64987;DHT22;51532;52.108;9.360;2022-07-23T16:54:11;28.20;86.10
64987;DHT22;51532;52.108;9.360;2022-07-23T16:56:57;27.10;87.10
64987;DHT22;51532;52.108;9.360;2022-07-23T16:59:42;28.00;87.00
64987;DHT22;51532;52.108;9.360;2022-07-23T17:02:28;28.70;85.30
64987;DHT22;51532;52.108;9.360;2022-07-23T17:05:14;28.70;84.80
64987;DHT22;51532;52.108;9.360;2022-07-23T17:08:02;27.20;87.20
64987;DHT22;51532;52.108;9.360;2022-07-23T17:10:50;27.30;89.90
64987;DHT22;51532;52.108;9.360;2022-07-23T17:13:35;26.80;90.90
64987;DHT22;51532;52.108;9.360;2022-07-23T17:16:21;25.70;91.80
64987;DHT22;51532;52.108;9.360;2022-07-23T17:19:07;25.00;92.20
64987;DHT22;51532;52.108;9.360;2022-07-23T17:21:52;24.90;92.60
64987;DHT22;51532;52.108;9.360;2022-07-23T17:24:44;26.40;93.20
64987;DHT22;51532;52.108;9.360;2022-07-23T17:27:30;25.80;93.50
64987;DHT22;51532;52.108;9.360;2022-07-23T17:30:16;24.10;93.10
64987;DHT22;51532;52.108;9.360;2022-07-23T17:33:03;24.70;93.40
64987;DHT22;51532;52.108;9.360;2022-07-23T17:35:52;24.60;93.80
64987;DHT22;51532;52.108;9.360;2022-07-23T17:38:41;24.40;94.10
64987;DHT22;51532;52.108;9.360;2022-07-23T17:41:26;24.10;94.60
64987;DHT22;51532;52.108;9.360;2022-07-23T17:44:13;24.30;94.60
64987;DHT22;51532;52.108;9.360;2022-07-23T17:46:59;24.30;94.80
64987;DHT22;51532;52.108;9.360;2022-07-23T17:49:44;25.30;95.20
64987;DHT22;51532;52.108;9.360;2022-07-23T17:52:33;24.30;94.90
64987;DHT22;51532;52.108;9.360;2022-07-23T17:55:27;24.00;95.10
64987;DHT22;51532;52.108;9.360;2022-07-23T17:58:13;24.20;96.20
64987;DHT22;51532;52.108;9.360;2022-07-23T18:01:06;24.40;96.40
64987;DHT22;51532;52.108;9.360;2022-07-23T18:03:52;23.60;96.10
64987;DHT22;51532;52.108;9.360;2022-07-23T18:06:38;23.70;96.60
64987;DHT22;51532;52.108;9.360;2022-07-23T18:09:24;23.70;96.30
64987;DHT22;51532;52.108;9.360;2022-07-23T18:12:10;24.80;97.10
64987;DHT22;51532;52.108;9.360;2022-07-23T18:14:55;23.40;96.80
64987;DHT22;51532;52.108;9.360;2022-07-23T18:17:41;23.30;96.90
64987;DHT22;51532;52.108;9.360;2022-07-23T18:20:28;23.20;97.50
64987;DHT22;51532;52.108;9.360;2022-07-23T18:23:22;23.10;97.40
64987;DHT22;51532;52.108;9.360;2022-07-23T18:26:07;23.10;97.60
64987;DHT22;51532;52.108;9.360;2022-07-23T18:28:59;23.10;97.70
64987;DHT22;51532;52.108;9.360;2022-07-23T18:31:47;23.00;97.90
64987;DHT22;51532;52.108;9.360;2022-07-23T18:34:33;23.00;98.00
64987;DHT22;51532;52.108;9.360;2022-07-23T18:37:19;22.80;98.30
64987;DHT22;51532;52.108;9.360;2022-07-23T18:40:21;22.80;98.90